sensor_id;sensor_type;location;lat;lon;timestamp;temperature;humidity
41220;DHT22;26951;47.338;9.196;2023-03-01T00:02:40;-0.90;63.30
41220;DHT22;26951;47.338;9.196;2023-03-01T00:05:24;-0.90;63.30
41220;DHT22;26951;47.338;9.196;2023-03-01T00:08:08;-0.90;63.30
41220;DHT22;26951;47.338;9.196;2023-03-01T00:11:26;-0.90;63.60
41220;DHT22;26951;47.338;9.196;2023-03-01T00:14:11;-0.90;61.70
41220;DHT22;26951;47.338;9.196;2023-03-01T00:16:55;-0.90;62.30
41220;DHT22;26951;47.338;9.196;2023-03-01T00:19:40;-0.90;61.70
41220;DHT22;26951;47.338;9.196;2023-03-01T00:22:24;-0.90;62.50
41220;DHT22;26951;47.338;9.196;2023-03-01T00:25:10;-0.90;62.00
41220;DHT22;26951;47.338;9.196;2023-03-01T00:27:54;-1.00;61.50
41220;DHT22;26951;47.338;9.196;2023-03-01T00:30:38;-1.00;62.00
41220;DHT22;26951;47.338;9.196;2023-03-01T00:33:22;-1.00;62.20
41220;DHT22;26951;47.338;9.196;2023-03-01T00:36:07;-1.00;61.90
41220;DHT22;26951;47.338;9.196;2023-03-01T00:38:52;-1.00;61.00
41220;DHT22;26951;47.338;9.196;2023-03-01T00:41:37;-1.00;60.70
41220;DHT22;26951;47.338;9.196;2023-03-01T00:44:21;-1.00;61.00
41220;DHT22;26951;47.338;9.196;2023-03-01T00:47:05;-1.10;61.90
41220;DHT22;26951;47.338;9.196;2023-03-01T00:49:49;-1.10;62.80
41220;DHT22;26951;47.338;9.196;2023-03-01T00:52:34;-1.10;63.20
41220;DHT22;26951;47.338;9.196;2023-03-01T00:55:18;-1.10;63.60
41220;DHT22;26951;47.338;9.196;2023-03-01T00:58:02;-1.00;63.80
41220;DHT22;26951;47.338;9.196;2023-03-01T01:00:46;-1.00;63.80
41220;DHT22;26951;47.338;9.196;2023-03-01T01:03:30;-1.00;63.40
41220;DHT22;26951;47.338;9.196;2023-03-01T01:06:26;-0.90;62.30
41220;DHT22;26951;47.338;9.196;2023-03-01T01:09:15;-1.00;62.60
41220;DHT22;26951;47.338;9.196;2023-03-01T01:12:03;-1.00;62.40
41220;DHT22;26951;47.338;9.196;2023-03-01T01:14:47;-1.00;62.80
41220;DHT22;26951;47.338;9.196;2023-03-01T01:17:32;-1.00;63.10
41220;DHT22;26951;47.338;9.196;2023-03-01T01:20:16;-1.00;63.50
41220;DHT22;26951;47.338;9.196;2023-03-01T01:23:00;-1.00;63.30
41220;DHT22;26951;47.338;9.196;2023-03-01T01:25:44;-1.00;62.60
41220;DHT22;26951;47.338;9.196;2023-03-01T01:28:29;-1.00;62.30
41220;DHT22;26951;47.338;9.196;2023-03-01T01:31:14;-1.00;62.80
41220;DHT22;26951;47.338;9.196;2023-03-01T01:33:59;-1.00;63.10
41220;DHT22;26951;47.338;9.196;2023-03-01T01:36:48;-0.90;63.30
41220;DHT22;26951;47.338;9.196;2023-03-01T01:39:34;-0.90;63.40
41220;DHT22;26951;47.338;9.196;2023-03-01T01:42:18;-0.90;62.80
41220;DHT22;26951;47.338;9.196;2023-03-01T01:45:26;-0.90;62.60
41220;DHT22;26951;47.338;9.196;2023-03-01T01:48:16;-0.90;62.40
41220;DHT22;26951;47.338;9.196;2023-03-01T01:51:01;-0.90;61.80
41220;DHT22;26951;47.338;9.196;2023-03-01T01:53:51;-0.90;61.70
41220;DHT22;26951;47.338;9.196;2023-03-01T01:56:38;-0.90;61.70
41220;DHT22;26951;47.338;9.196;2023-03-01T01:59:24;-0.90;61.90
41220;DHT22;26951;47.338;9.196;2023-03-01T02:02:11;-0.90;62.50
41220;DHT22;26951;47.338;9.196;2023-03-01T02:05:06;-0.90;62.20
41220;DHT22;26951;47.338;9.196;2023-03-01T02:07:55;-0.90;62.80
41220;DHT22;26951;47.338;9.196;2023-03-01T02:10:40;-0.90;63.00
41220;DHT22;26951;47.338;9.196;2023-03-01T02:13:26;-0.90;62.80
41220;DHT22;26951;47.338;9.196;2023-03-01T02:16:13;-0.90;62.60
41220;DHT22;26951;47.338;9.196;2023-03-01T02:18:59;-0.80;63.10
41220;DHT22;26951;47.338;9.196;2023-03-01T02:22:02;-0.90;63.30
41220;DHT22;26951;47.338;9.196;2023-03-01T02:25:03;-0.80;63.80
41220;DHT22;26951;47.338;9.196;2023-03-01T02:28:06;-0.80;63.40
41220;DHT22;26951;47.338;9.196;2023-03-01T02:30:51;-0.80;62.90
41220;DHT22;26951;47.338;9.196;2023-03-01T02:33:56;-0.80;62.00
41220;DHT22;26951;47.338;9.196;2023-03-01T02:36:47;-0.90;62.80
41220;DHT22;26951;47.338;9.196;2023-03-01T02:39:47;-0.90;62.90
41220;DHT22;26951;47.338;9.196;2023-03-01T02:42:36;-0.90;62.00
41220;DHT22;26951;47.338;9.196;2023-03-01T02:45:23;-1.00;61.80
41220;DHT22;26951;47.338;9.196;2023-03-01T02:48:07;-1.00;62.40
41220;DHT22;26951;47.338;9.196;2023-03-01T02:51:06;-1.00;62.20
41220;DHT22;26951;47.338;9.196;2023-03-01T02:56:57;-1.00;63.10
41220;DHT22;26951;47.338;9.196;2023-03-01T02:59:42;-1.00;62.80
41220;DHT22;26951;47.338;9.196;2023-03-01T03:02:28;-1.00;63.20
41220;DHT22;26951;47.338;9.196;2023-03-01T03:05:28;-1.00;63.40
41220;DHT22;26951;47.338;9.196;2023-03-01T03:08:12;-0.90;62.50
41220;DHT22;26951;47.338;9.196;2023-03-01T03:10:56;-0.90;62.60
41220;DHT22;26951;47.338;9.196;2023-03-01T03:13:40;-0.90;63.10
41220;DHT22;26951;47.338;9.196;2023-03-01T03:16:31;-0.90;63.60
41220;DHT22;26951;47.338;9.196;2023-03-01T03:19:18;-0.90;62.00
41220;DHT22;26951;47.338;9.196;2023-03-01T03:22:02;-0.90;62.40
41220;DHT22;26951;47.338;9.196;2023-03-01T03:24:46;-0.90;62.80
41220;DHT22;26951;47.338;9.196;2023-03-01T03:27:30;-0.90;61.80
41220;DHT22;26951;47.338;9.196;2023-03-01T03:30:18;-0.90;62.10
41220;DHT22;26951;47.338;9.196;2023-03-01T03:33:02;-0.90;62.50
41220;DHT22;26951;47.338;9.196;2023-03-01T03:35:48;-0.90;62.80
41220;DHT22;26951;47.338;9.196;2023-03-01T03:38:33;-0.90;63.10
41220;DHT22;26951;47.338;9.196;2023-03-01T03:41:17;-0.90;63.50
41220;DHT22;26951;47.338;9.196;2023-03-01T03:44:02;-0.80;63.80
41220;DHT22;26951;47.338;9.196;2023-03-01T03:46:46;-0.80;63.80
41220;DHT22;26951;47.338;9.196;2023-03-01T03:49:30;-0.80;63.70
41220;DHT22;26951;47.338;9.196;2023-03-01T03:52:14;-0.80;63.30
41220;DHT22;26951;47.338;9.196;2023-03-01T03:54:58;-0.80;63.70
41220;DHT22;26951;47.338;9.196;2023-03-01T03:57:42;-0.80;63.80
41220;DHT22;26951;47.338;9.196;2023-03-01T04:00:26;-0.70;63.80
41220;DHT22;26951;47.338;9.196;2023-03-01T04:03:12;-0.80;62.60
41220;DHT22;26951;47.338;9.196;2023-03-01T04:06:00;-0.80;61.90
41220;DHT22;26951;47.338;9.196;2023-03-01T04:08:45;-0.80;62.10
41220;DHT22;26951;47.338;9.196;2023-03-01T04:11:29;-0.80;62.60
41220;DHT22;26951;47.338;9.196;2023-03-01T04:14:13;-0.80;63.20
41220;DHT22;26951;47.338;9.196;2023-03-01T04:16:57;-0.80;63.10
41220;DHT22;26951;47.338;9.196;2023-03-01T04:19:41;-0.80;63.00
41220;DHT22;26951;47.338;9.196;2023-03-01T04:22:28;-0.80;63.30
41220;DHT22;26951;47.338;9.196;2023-03-01T04:25:13;-0.80;63.50
41220;DHT22;26951;47.338;9.196;2023-03-01T04:27:58;-0.80;63.60
41220;DHT22;26951;47.338;9.196;2023-03-01T04:30:43;-0.80;63.80
41220;DHT22;26951;47.338;9.196;2023-03-01T04:33:27;-0.80;63.10
41220;DHT22;26951;47.338;9.196;2023-03-01T04:36:12;-0.80;61.70
41220;DHT22;26951;47.338;9.196;2023-03-01T04:38:57;-0.80;61.90
41220;DHT22;26951;47.338;9.196;2023-03-01T04:41:41;-0.80;62.60
41220;DHT22;26951;47.338;9.196;2023-03-01T04:44:27;-0.80;62.30
41220;DHT22;26951;47.338;9.196;2023-03-01T04:47:11;-0.80;62.30
41220;DHT22;26951;47.338;9.196;2023-03-01T04:49:56;-0.80;63.10
41220;DHT22;26951;47.338;9.196;2023-03-01T04:52:40;-0.80;62.00
41220;DHT22;26951;47.338;9.196;2023-03-01T04:55:28;-0.80;62.50
41220;DHT22;26951;47.338;9.196;2023-03-01T04:58:12;-0.80;62.60
41220;DHT22;26951;47.338;9.196;2023-03-01T05:00:56;-0.80;61.70
41220;DHT22;26951;47.338;9.196;2023-03-01T05:03:45;-0.80;62.00
41220;DHT22;26951;47.338;9.196;2023-03-01T05:06:29;-0.80;61.90
41220;DHT22;26951;47.338;9.196;2023-03-01T05:09:14;-0.80;61.50
41220;DHT22;26951;47.338;9.196;2023-03-01T05:11:58;-0.80;62.00
41220;DHT22;26951;47.338;9.196;2023-03-01T05:14:42;-0.80;61.80
41220;DHT22;26951;47.338;9.196;2023-03-01T05:17:26;-0.80;62.00
41220;DHT22;26951;47.338;9.196;2023-03-01T05:20:11;-0.80;61.50
41220;DHT22;26951;47.338;9.196;2023-03-01T05:22:57;-0.80;61.60
41220;DHT22;26951;47.338;9.196;2023-03-01T05:25:42;-0.80;62.20
41220;DHT22;26951;47.338;9.196;2023-03-01T05:28:26;-0.80;62.30
41220;DHT22;26951;47.338;9.196;2023-03-01T05:31:12;-0.80;61.60
41220;DHT22;26951;47.338;9.196;2023-03-01T05:33:56;-0.80;61.80
41220;DHT22;26951;47.338;9.196;2023-03-01T05:36:40;-0.80;61.20
41220;DHT22;26951;47.338;9.196;2023-03-01T05:39:26;-0.80;61.20
41220;DHT22;26951;47.338;9.196;2023-03-01T05:42:11;-0.80;61.90
41220;DHT22;26951;47.338;9.196;2023-03-01T05:44:55;-0.80;62.30
41220;DHT22;26951;47.338;9.196;2023-03-01T05:47:41;-0.80;61.30
41220;DHT22;26951;47.338;9.196;2023-03-01T05:50:31;-0.80;61.50
41220;DHT22;26951;47.338;9.196;2023-03-01T05:53:18;-0.80;61.60
41220;DHT22;26951;47.338;9.196;2023-03-01T05:56:06;-0.80;61.30
41220;DHT22;26951;47.338;9.196;2023-03-01T05:58:50;-0.80;60.90
41220;DHT22;26951;47.338;9.196;2023-03-01T06:01:35;-0.80;61.40
41220;DHT22;26951;47.338;9.196;2023-03-01T06:04:20;-0.80;62.00
41220;DHT22;26951;47.338;9.196;2023-03-01T06:07:04;-0.80;61.90
41220;DHT22;26951;47.338;9.196;2023-03-01T06:09:49;-0.80;61.20
41220;DHT22;26951;47.338;9.196;2023-03-01T06:12:34;-0.80;61.50
41220;DHT22;26951;47.338;9.196;2023-03-01T06:15:19;-0.80;62.10
41220;DHT22;26951;47.338;9.196;2023-03-01T06:18:03;-0.80;62.30
41220;DHT22;26951;47.338;9.196;2023-03-01T06:20:57;-0.80;62.30
41220;DHT22;26951;47.338;9.196;2023-03-01T06:23:41;-0.80;62.30
41220;DHT22;26951;47.338;9.196;2023-03-01T06:26:25;-0.80;62.00
41220;DHT22;26951;47.338;9.196;2023-03-01T06:29:09;-0.80;62.10
41220;DHT22;26951;47.338;9.196;2023-03-01T06:31:53;-0.80;61.90
41220;DHT22;26951;47.338;9.196;2023-03-01T06:34:37;-0.80;60.50
41220;DHT22;26951;47.338;9.196;2023-03-01T06:37:21;-0.80;61.00
41220;DHT22;26951;47.338;9.196;2023-03-01T06:40:07;-0.80;60.80
41220;DHT22;26951;47.338;9.196;2023-03-01T06:42:51;-0.90;59.50
41220;DHT22;26951;47.338;9.196;2023-03-01T06:45:36;-0.90;59.60
41220;DHT22;26951;47.338;9.196;2023-03-01T06:48:21;-0.90;60.20
41220;DHT22;26951;47.338;9.196;2023-03-01T06:51:05;-0.90;61.20
41220;DHT22;26951;47.338;9.196;2023-03-01T06:53:49;-0.90;61.90
41220;DHT22;26951;47.338;9.196;2023-03-01T06:56:34;-0.90;62.20
41220;DHT22;26951;47.338;9.196;2023-03-01T06:59:18;-0.80;62.60
41220;DHT22;26951;47.338;9.196;2023-03-01T07:02:03;-0.80;62.40
41220;DHT22;26951;47.338;9.196;2023-03-01T07:04:51;-0.80;61.90
41220;DHT22;26951;47.338;9.196;2023-03-01T07:07:36;-0.80;61.50
41220;DHT22;26951;47.338;9.196;2023-03-01T07:10:20;-0.80;60.90
41220;DHT22;26951;47.338;9.196;2023-03-01T07:13:04;-0.80;60.70
41220;DHT22;26951;47.338;9.196;2023-03-01T07:15:50;-0.80;60.20
41220;DHT22;26951;47.338;9.196;2023-03-01T07:18:35;-0.80;60.70
41220;DHT22;26951;47.338;9.196;2023-03-01T07:21:19;-0.80;60.70
41220;DHT22;26951;47.338;9.196;2023-03-01T07:24:03;-0.80;61.20
41220;DHT22;26951;47.338;9.196;2023-03-01T07:26:51;-0.80;61.20
41220;DHT22;26951;47.338;9.196;2023-03-01T07:29:35;-0.70;61.30
41220;DHT22;26951;47.338;9.196;2023-03-01T07:32:22;-0.70;61.70
41220;DHT22;26951;47.338;9.196;2023-03-01T07:35:07;-0.70;61.30
41220;DHT22;26951;47.338;9.196;2023-03-01T07:37:52;-0.70;60.60
41220;DHT22;26951;47.338;9.196;2023-03-01T07:40:36;-0.60;61.10
41220;DHT22;26951;47.338;9.196;2023-03-01T07:43:20;-0.60;60.80
41220;DHT22;26951;47.338;9.196;2023-03-01T07:46:04;-0.60;60.10
41220;DHT22;26951;47.338;9.196;2023-03-01T07:48:48;-0.60;60.30
41220;DHT22;26951;47.338;9.196;2023-03-01T07:51:32;-0.60;61.20
41220;DHT22;26951;47.338;9.196;2023-03-01T07:54:16;-0.50;60.90
41220;DHT22;26951;47.338;9.196;2023-03-01T07:57:02;-0.50;61.30
41220;DHT22;26951;47.338;9.196;2023-03-01T07:59:46;-0.50;61.20
41220;DHT22;26951;47.338;9.196;2023-03-01T08:02:30;-0.50;61.00
41220;DHT22;26951;47.338;9.196;2023-03-01T08:05:15;-0.40;60.80
41220;DHT22;26951;47.338;9.196;2023-03-01T08:07:59;-0.40;59.40
41220;DHT22;26951;47.338;9.196;2023-03-01T08:10:43;-0.40;59.60
41220;DHT22;26951;47.338;9.196;2023-03-01T08:13:28;-0.40;60.20
41220;DHT22;26951;47.338;9.196;2023-03-01T08:16:14;-0.40;60.50
41220;DHT22;26951;47.338;9.196;2023-03-01T08:19:04;-0.30;60.10
41220;DHT22;26951;47.338;9.196;2023-03-01T08:21:48;-0.30;59.70
41220;DHT22;26951;47.338;9.196;2023-03-01T08:24:32;-0.30;59.90
41220;DHT22;26951;47.338;9.196;2023-03-01T08:27:17;-0.30;60.20
41220;DHT22;26951;47.338;9.196;2023-03-01T08:30:01;-0.30;59.90
41220;DHT22;26951;47.338;9.196;2023-03-01T08:32:46;-0.30;60.40
41220;DHT22;26951;47.338;9.196;2023-03-01T08:35:30;-0.20;60.00
41220;DHT22;26951;47.338;9.196;2023-03-01T08:38:14;-0.20;59.80
41220;DHT22;26951;47.338;9.196;2023-03-01T08:41:03;-0.20;60.30
41220;DHT22;26951;47.338;9.196;2023-03-01T08:43:47;-0.10;60.60
41220;DHT22;26951;47.338;9.196;2023-03-01T08:46:35;-0.10;59.50
41220;DHT22;26951;47.338;9.196;2023-03-01T08:49:20;-0.10;60.00
41220;DHT22;26951;47.338;9.196;2023-03-01T08:52:04;0.00;59.90
41220;DHT22;26951;47.338;9.196;2023-03-01T08:54:48;0.00;60.30
41220;DHT22;26951;47.338;9.196;2023-03-01T08:57:32;0.00;60.10
41220;DHT22;26951;47.338;9.196;2023-03-01T09:00:17;0.10;58.00
41220;DHT22;26951;47.338;9.196;2023-03-01T09:03:01;0.10;58.90
41220;DHT22;26951;47.338;9.196;2023-03-01T09:05:46;0.10;59.50
41220;DHT22;26951;47.338;9.196;2023-03-01T09:08:31;0.10;59.40
41220;DHT22;26951;47.338;9.196;2023-03-01T09:11:20;0.10;59.60
41220;DHT22;26951;47.338;9.196;2023-03-01T09:14:05;0.20;59.20
41220;DHT22;26951;47.338;9.196;2023-03-01T09:16:50;0.20;59.30
41220;DHT22;26951;47.338;9.196;2023-03-01T09:19:34;0.20;59.00
41220;DHT22;26951;47.338;9.196;2023-03-01T09:22:18;0.30;58.80
41220;DHT22;26951;47.338;9.196;2023-03-01T09:25:03;0.30;58.40
41220;DHT22;26951;47.338;9.196;2023-03-01T09:27:47;0.30;58.50
41220;DHT22;26951;47.338;9.196;2023-03-01T09:30:31;0.30;58.20
41220;DHT22;26951;47.338;9.196;2023-03-01T09:33:15;0.30;57.70
41220;DHT22;26951;47.338;9.196;2023-03-01T09:36:04;0.30;58.00
41220;DHT22;26951;47.338;9.196;2023-03-01T09:38:49;0.40;57.50
41220;DHT22;26951;47.338;9.196;2023-03-01T09:44:46;0.40;57.70
41220;DHT22;26951;47.338;9.196;2023-03-01T09:47:34;0.50;58.30
41220;DHT22;26951;47.338;9.196;2023-03-01T09:50:20;0.50;58.00
41220;DHT22;26951;47.338;9.196;2023-03-01T09:53:15;0.60;56.40
41220;DHT22;26951;47.338;9.196;2023-03-01T10:04:50;0.70;58.00
41220;DHT22;26951;47.338;9.196;2023-03-01T10:08:00;0.80;58.10
41220;DHT22;26951;47.338;9.196;2023-03-01T10:10:47;0.90;57.70
41220;DHT22;26951;47.338;9.196;2023-03-01T10:13:54;0.90;56.40
41220;DHT22;26951;47.338;9.196;2023-03-01T10:16:48;0.90;57.00
41220;DHT22;26951;47.338;9.196;2023-03-01T10:19:39;1.00;56.80
41220;DHT22;26951;47.338;9.196;2023-03-01T10:22:28;1.10;56.60
41220;DHT22;26951;47.338;9.196;2023-03-01T10:25:14;1.10;57.20
41220;DHT22;26951;47.338;9.196;2023-03-01T10:28:07;1.20;56.20
41220;DHT22;26951;47.338;9.196;2023-03-01T10:30:54;1.20;56.90
41220;DHT22;26951;47.338;9.196;2023-03-01T10:33:38;1.20;56.10
41220;DHT22;26951;47.338;9.196;2023-03-01T10:36:23;1.20;56.20
41220;DHT22;26951;47.338;9.196;2023-03-01T10:39:13;1.30;56.30
41220;DHT22;26951;47.338;9.196;2023-03-01T10:42:03;1.30;55.20
41220;DHT22;26951;47.338;9.196;2023-03-01T10:44:48;1.30;55.10
41220;DHT22;26951;47.338;9.196;2023-03-01T10:47:33;1.40;54.80
41220;DHT22;26951;47.338;9.196;2023-03-01T10:50:21;1.40;54.20
41220;DHT22;26951;47.338;9.196;2023-03-01T10:56:13;1.40;53.20
41220;DHT22;26951;47.338;9.196;2023-03-01T10:59:04;1.40;54.10
41220;DHT22;26951;47.338;9.196;2023-03-01T11:08:03;1.50;54.50
41220;DHT22;26951;47.338;9.196;2023-03-01T11:10:47;1.50;54.40
41220;DHT22;26951;47.338;9.196;2023-03-01T11:13:31;1.50;54.70
41220;DHT22;26951;47.338;9.196;2023-03-01T11:16:44;1.50;54.60
41220;DHT22;26951;47.338;9.196;2023-03-01T11:19:27;1.60;53.70
41220;DHT22;26951;47.338;9.196;2023-03-01T11:22:19;1.60;54.20
41220;DHT22;26951;47.338;9.196;2023-03-01T11:25:05;1.70;53.80
41220;DHT22;26951;47.338;9.196;2023-03-01T11:27:49;1.70;54.40
41220;DHT22;26951;47.338;9.196;2023-03-01T11:30:48;1.80;54.00
41220;DHT22;26951;47.338;9.196;2023-03-01T11:33:54;1.80;53.50
41220;DHT22;26951;47.338;9.196;2023-03-01T11:36:42;1.80;53.80
41220;DHT22;26951;47.338;9.196;2023-03-01T11:39:47;1.90;54.50
41220;DHT22;26951;47.338;9.196;2023-03-01T11:42:57;2.00;54.90
41220;DHT22;26951;47.338;9.196;2023-03-01T11:49:03;2.10;53.30
41220;DHT22;26951;47.338;9.196;2023-03-01T11:52:01;2.10;53.30
41220;DHT22;26951;47.338;9.196;2023-03-01T11:55:17;2.10;52.20
41220;DHT22;26951;47.338;9.196;2023-03-01T11:58:13;2.20;52.00
41220;DHT22;26951;47.338;9.196;2023-03-01T12:01:17;2.20;53.40
41220;DHT22;26951;47.338;9.196;2023-03-01T12:07:46;2.20;51.70
41220;DHT22;26951;47.338;9.196;2023-03-01T12:13:59;2.20;53.10
41220;DHT22;26951;47.338;9.196;2023-03-01T12:20:02;2.20;52.80
41220;DHT22;26951;47.338;9.196;2023-03-01T12:26:31;2.20;52.80
41220;DHT22;26951;47.338;9.196;2023-03-01T12:29:24;2.20;52.70
41220;DHT22;26951;47.338;9.196;2023-03-01T12:32:12;2.20;52.70
41220;DHT22;26951;47.338;9.196;2023-03-01T12:38:45;2.10;51.80
41220;DHT22;26951;47.338;9.196;2023-03-01T12:42:01;2.20;52.00
41220;DHT22;26951;47.338;9.196;2023-03-01T12:47:58;2.20;50.50
41220;DHT22;26951;47.338;9.196;2023-03-01T12:50:55;2.20;49.60
41220;DHT22;26951;47.338;9.196;2023-03-01T12:53:45;2.10;49.90
41220;DHT22;26951;47.338;9.196;2023-03-01T12:56:31;2.10;50.30
41220;DHT22;26951;47.338;9.196;2023-03-01T12:59:25;2.00;51.50
41220;DHT22;26951;47.338;9.196;2023-03-01T13:02:33;2.00;52.30
41220;DHT22;26951;47.338;9.196;2023-03-01T13:05:56;2.00;52.30
41220;DHT22;26951;47.338;9.196;2023-03-01T13:08:54;2.10;52.50
41220;DHT22;26951;47.338;9.196;2023-03-01T13:11:42;2.10;52.40
41220;DHT22;26951;47.338;9.196;2023-03-01T13:14:37;2.10;51.70
41220;DHT22;26951;47.338;9.196;2023-03-01T13:17:33;2.10;52.50
41220;DHT22;26951;47.338;9.196;2023-03-01T13:20:19;2.10;51.70
41220;DHT22;26951;47.338;9.196;2023-03-01T13:26:14;2.10;51.50
41220;DHT22;26951;47.338;9.196;2023-03-01T13:28:59;2.10;51.90
41220;DHT22;26951;47.338;9.196;2023-03-01T13:34:46;2.10;52.60
41220;DHT22;26951;47.338;9.196;2023-03-01T13:37:33;2.10;52.30
41220;DHT22;26951;47.338;9.196;2023-03-01T13:43:29;2.10;51.90
41220;DHT22;26951;47.338;9.196;2023-03-01T13:46:20;2.10;51.20
41220;DHT22;26951;47.338;9.196;2023-03-01T13:49:13;2.10;51.10
41220;DHT22;26951;47.338;9.196;2023-03-01T13:51:58;2.10;52.30
41220;DHT22;26951;47.338;9.196;2023-03-01T13:54:42;2.10;51.40
41220;DHT22;26951;47.338;9.196;2023-03-01T13:57:32;2.10;50.90
41220;DHT22;26951;47.338;9.196;2023-03-01T14:00:44;2.10;50.90
41220;DHT22;26951;47.338;9.196;2023-03-01T14:03:30;2.10;51.10
41220;DHT22;26951;47.338;9.196;2023-03-01T14:06:20;2.10;52.10
41220;DHT22;26951;47.338;9.196;2023-03-01T14:09:18;2.10;52.40
41220;DHT22;26951;47.338;9.196;2023-03-01T14:12:19;2.10;52.50
41220;DHT22;26951;47.338;9.196;2023-03-01T14:18:47;2.10;52.70
41220;DHT22;26951;47.338;9.196;2023-03-01T14:21:31;2.10;51.60
41220;DHT22;26951;47.338;9.196;2023-03-01T14:24:18;2.10;51.50
41220;DHT22;26951;47.338;9.196;2023-03-01T14:27:04;2.10;51.40
41220;DHT22;26951;47.338;9.196;2023-03-01T14:30:01;2.00;52.40
41220;DHT22;26951;47.338;9.196;2023-03-01T14:33:00;2.00;52.30
41220;DHT22;26951;47.338;9.196;2023-03-01T14:35:59;1.90;53.00
41220;DHT22;26951;47.338;9.196;2023-03-01T14:38:46;1.90;53.00
41220;DHT22;26951;47.338;9.196;2023-03-01T14:41:34;1.90;53.40
41220;DHT22;26951;47.338;9.196;2023-03-01T14:44:22;1.90;53.60
41220;DHT22;26951;47.338;9.196;2023-03-01T14:47:15;1.90;52.70
41220;DHT22;26951;47.338;9.196;2023-03-01T14:50:04;1.80;53.30
41220;DHT22;26951;47.338;9.196;2023-03-01T14:52:52;1.80;53.50
41220;DHT22;26951;47.338;9.196;2023-03-01T14:55:40;1.80;53.50
41220;DHT22;26951;47.338;9.196;2023-03-01T14:58:25;1.80;53.70
41220;DHT22;26951;47.338;9.196;2023-03-01T15:01:14;1.80;53.00
41220;DHT22;26951;47.338;9.196;2023-03-01T15:04:00;1.80;53.30
41220;DHT22;26951;47.338;9.196;2023-03-01T15:06:45;1.70;52.50
41220;DHT22;26951;47.338;9.196;2023-03-01T15:09:32;1.70;53.30
41220;DHT22;26951;47.338;9.196;2023-03-01T15:15:42;1.60;54.10
41220;DHT22;26951;47.338;9.196;2023-03-01T15:18:28;1.50;54.30
41220;DHT22;26951;47.338;9.196;2023-03-01T15:21:22;1.50;54.30
41220;DHT22;26951;47.338;9.196;2023-03-01T15:26:59;1.40;54.40
41220;DHT22;26951;47.338;9.196;2023-03-01T15:29:55;1.40;54.70
41220;DHT22;26951;47.338;9.196;2023-03-01T15:32:39;1.40;54.30
41220;DHT22;26951;47.338;9.196;2023-03-01T15:35:42;1.40;54.20
41220;DHT22;26951;47.338;9.196;2023-03-01T15:38:54;1.40;54.50
41220;DHT22;26951;47.338;9.196;2023-03-01T15:41:47;1.40;55.00
41220;DHT22;26951;47.338;9.196;2023-03-01T15:44:35;1.40;55.30
41220;DHT22;26951;47.338;9.196;2023-03-01T15:47:26;1.30;55.40
41220;DHT22;26951;47.338;9.196;2023-03-01T15:50:19;1.30;55.00
41220;DHT22;26951;47.338;9.196;2023-03-01T15:53:13;1.30;55.40
41220;DHT22;26951;47.338;9.196;2023-03-01T15:55:58;1.20;54.40
41220;DHT22;26951;47.338;9.196;2023-03-01T15:58:43;1.20;55.00
41220;DHT22;26951;47.338;9.196;2023-03-01T16:01:27;1.20;55.40
41220;DHT22;26951;47.338;9.196;2023-03-01T16:04:13;1.20;55.70
41220;DHT22;26951;47.338;9.196;2023-03-01T16:07:04;1.20;55.70
41220;DHT22;26951;47.338;9.196;2023-03-01T16:09:48;1.20;55.70
41220;DHT22;26951;47.338;9.196;2023-03-01T16:12:32;1.20;55.70
41220;DHT22;26951;47.338;9.196;2023-03-01T16:15:19;1.20;55.70
41220;DHT22;26951;47.338;9.196;2023-03-01T16:18:04;1.10;55.60
41220;DHT22;26951;47.338;9.196;2023-03-01T16:20:49;1.10;55.90
41220;DHT22;26951;47.338;9.196;2023-03-01T16:23:33;1.10;55.90
41220;DHT22;26951;47.338;9.196;2023-03-01T16:26:18;1.10;56.00
41220;DHT22;26951;47.338;9.196;2023-03-01T16:29:02;1.10;55.80
41220;DHT22;26951;47.338;9.196;2023-03-01T16:31:47;1.00;55.60
41220;DHT22;26951;47.338;9.196;2023-03-01T16:34:31;1.00;55.30
41220;DHT22;26951;47.338;9.196;2023-03-01T16:37:16;1.00;55.50
41220;DHT22;26951;47.338;9.196;2023-03-01T16:40:00;1.00;55.70
41220;DHT22;26951;47.338;9.196;2023-03-01T16:42:45;0.90;55.90
41220;DHT22;26951;47.338;9.196;2023-03-01T16:45:34;0.90;55.90
41220;DHT22;26951;47.338;9.196;2023-03-01T16:48:24;0.90;56.30
41220;DHT22;26951;47.338;9.196;2023-03-01T16:51:08;0.90;56.00
41220;DHT22;26951;47.338;9.196;2023-03-01T16:53:52;0.80;56.00
41220;DHT22;26951;47.338;9.196;2023-03-01T16:56:37;0.80;56.30
41220;DHT22;26951;47.338;9.196;2023-03-01T16:59:23;0.80;56.70
41220;DHT22;26951;47.338;9.196;2023-03-01T17:02:11;0.70;56.70
41220;DHT22;26951;47.338;9.196;2023-03-01T17:04:56;0.70;56.80
41220;DHT22;26951;47.338;9.196;2023-03-01T17:07:40;0.70;56.90
41220;DHT22;26951;47.338;9.196;2023-03-01T17:10:24;0.70;56.80
41220;DHT22;26951;47.338;9.196;2023-03-01T17:13:09;0.70;56.40
41220;DHT22;26951;47.338;9.196;2023-03-01T17:15:54;0.70;56.60
41220;DHT22;26951;47.338;9.196;2023-03-01T17:18:38;0.60;56.70
41220;DHT22;26951;47.338;9.196;2023-03-01T17:21:22;0.60;56.80
41220;DHT22;26951;47.338;9.196;2023-03-01T17:24:06;0.60;56.10
41220;DHT22;26951;47.338;9.196;2023-03-01T17:26:50;0.60;56.50
41220;DHT22;26951;47.338;9.196;2023-03-01T17:29:35;0.50;56.60
41220;DHT22;26951;47.338;9.196;2023-03-01T17:32:19;0.50;56.00
41220;DHT22;26951;47.338;9.196;2023-03-01T17:35:03;0.50;56.70
41220;DHT22;26951;47.338;9.196;2023-03-01T17:37:48;0.50;56.90
41220;DHT22;26951;47.338;9.196;2023-03-01T17:40:32;0.50;57.20
41220;DHT22;26951;47.338;9.196;2023-03-01T17:43:18;0.50;57.40
41220;DHT22;26951;47.338;9.196;2023-03-01T17:46:03;0.50;57.10
41220;DHT22;26951;47.338;9.196;2023-03-01T17:48:47;0.50;57.40
41220;DHT22;26951;47.338;9.196;2023-03-01T17:51:32;0.50;57.80
41220;DHT22;26951;47.338;9.196;2023-03-01T17:54:16;0.50;57.60
41220;DHT22;26951;47.338;9.196;2023-03-01T17:57:00;0.50;57.80
41220;DHT22;26951;47.338;9.196;2023-03-01T17:59:45;0.50;58.00
41220;DHT22;26951;47.338;9.196;2023-03-01T18:02:29;0.50;58.30
41220;DHT22;26951;47.338;9.196;2023-03-01T18:05:13;0.50;58.30
41220;DHT22;26951;47.338;9.196;2023-03-01T18:07:57;0.50;57.80
41220;DHT22;26951;47.338;9.196;2023-03-01T18:10:41;0.50;57.50
41220;DHT22;26951;47.338;9.196;2023-03-01T18:13:25;0.50;57.80
41220;DHT22;26951;47.338;9.196;2023-03-01T18:16:11;0.50;58.20
41220;DHT22;26951;47.338;9.196;2023-03-01T18:18:56;0.50;58.30
41220;DHT22;26951;47.338;9.196;2023-03-01T18:21:41;0.50;57.90
41220;DHT22;26951;47.338;9.196;2023-03-01T18:24:25;0.50;58.00
41220;DHT22;26951;47.338;9.196;2023-03-01T18:27:10;0.50;57.90
41220;DHT22;26951;47.338;9.196;2023-03-01T18:29:54;0.50;57.80
41220;DHT22;26951;47.338;9.196;2023-03-01T18:32:39;0.50;58.20
41220;DHT22;26951;47.338;9.196;2023-03-01T18:35:23;0.50;58.00
41220;DHT22;26951;47.338;9.196;2023-03-01T18:38:07;0.40;58.00
41220;DHT22;26951;47.338;9.196;2023-03-01T18:40:52;0.40;57.70
41220;DHT22;26951;47.338;9.196;2023-03-01T18:43:36;0.40;58.10
41220;DHT22;26951;47.338;9.196;2023-03-01T18:46:20;0.40;58.30
41220;DHT22;26951;47.338;9.196;2023-03-01T18:49:05;0.40;58.40
41220;DHT22;26951;47.338;9.196;2023-03-01T18:51:50;0.30;58.30
41220;DHT22;26951;47.338;9.196;2023-03-01T18:54:34;0.30;58.60